Time;durP1;ratioP1;P1;durP2;ratioP2;P2;SDS_P1;SDS_P2;PMS_P1;PMS_P2;Temp;Humidity;BMP_temperature;BMP_pressure;BME280_temperature;BME280_humidity;BME280_pressure;Samples;Min_cycle;Max_cycle;Signal;HPM_P1;HPM_P2
2023/12/08 00:02:20;;;;;;;4.53;4.13;;;1.40;99.90;;;;;;5034107;28;20076;-65
2023/12/08 00:04:45;;;;;;;4.63;4.00;;;1.40;99.90;;;;;;5034188;28;20041;-65
2023/12/08 00:07:11;;;;;;;3.75;3.45;;;1.40;99.90;;;;;;5034112;28;20401;-65
2023/12/08 00:09:36;;;;;;;3.65;3.30;;;1.40;99.90;;;;;;5033689;28;20041;-65
2023/12/08 00:12:02;;;;;;;4.07;3.67;;;1.50;99.90;;;;;;5033750;28;20041;-65
2023/12/08 00:14:28;;;;;;;4.28;3.88;;;1.50;99.90;;;;;;5034147;28;20080;-65
2023/12/08 00:16:54;;;;;;;4.03;3.67;;;1.50;99.90;;;;;;5033566;28;20095;-65
2023/12/08 00:19:20;;;;;;;3.88;3.55;;;1.50;99.90;;;;;;5033852;28;20042;-65
2023/12/08 00:21:45;;;;;;;4.03;3.63;;;1.50;99.90;;;;;;5033702;28;20038;-65
2023/12/08 00:24:11;;;;;;;4.07;3.67;;;1.50;99.90;;;;;;5033618;28;20071;-65
2023/12/08 00:26:37;;;;;;;3.80;3.50;;;1.40;99.90;;;;;;5033767;28;20441;-65
2023/12/08 00:29:04;;;;;;;3.70;3.40;;;1.50;99.90;;;;;;5033416;28;20037;-65
2023/12/08 00:31:29;;;;;;;3.58;3.28;;;1.40;99.90;;;;;;5033665;28;20475;-65
2023/12/08 00:33:56;;;;;;;3.40;3.10;;;1.40;99.90;;;;;;5033649;28;20128;-65
2023/12/08 00:36:22;;;;;;;3.75;3.45;;;1.40;99.90;;;;;;5033350;28;20057;-65
2023/12/08 00:38:48;;;;;;;3.97;3.67;;;1.50;99.90;;;;;;5033588;28;20084;-65
2023/12/08 00:41:14;;;;;;;4.22;3.88;;;1.40;99.90;;;;;;5033394;28;20076;-65
2023/12/08 00:43:39;;;;;;;3.95;3.65;;;1.40;99.90;;;;;;5033481;28;20531;-65
2023/12/08 00:46:05;;;;;;;2.95;2.70;;;1.40;99.90;;;;;;5033426;28;20420;-65
2023/12/08 00:48:31;;;;;;;3.42;3.13;;;1.40;99.90;;;;;;5033441;28;20069;-65
2023/12/08 00:50:57;;;;;;;3.78;3.47;;;1.40;99.90;;;;;;5033088;28;20045;-65
2023/12/08 00:53:22;;;;;;;3.75;3.45;;;1.70;99.90;;;;;;5033350;28;20047;-65
2023/12/08 00:55:48;;;;;;;3.78;3.47;;;1.40;99.90;;;;;;5033166;28;20045;-65
2023/12/08 00:58:17;;;;;;;3.88;3.47;;;1.40;99.90;;;;;;5032499;28;20084;-65
2023/12/08 01:00:44;;;;;;;3.78;3.47;;;1.40;99.90;;;;;;5033228;28;20049;-65
2023/12/08 01:03:10;;;;;;;3.38;3.08;;;1.40;99.90;;;;;;5033315;28;20452;-65
2023/12/08 01:05:35;;;;;;;3.72;3.42;;;1.40;99.90;;;;;;5033206;28;20398;-65
2023/12/08 01:08:01;;;;;;;3.83;3.53;;;1.60;99.90;;;;;;5033147;28;20046;-66
2023/12/08 01:10:27;;;;;;;4.75;3.58;;;1.50;99.90;;;;;;5033101;28;20069;-66
2023/12/08 01:12:52;;;;;;;3.35;3.05;;;1.40;99.90;;;;;;5033065;28;20437;-65
2023/12/08 01:15:18;;;;;;;3.60;3.30;;;1.40;99.90;;;;;;5032772;28;20037;-65
2023/12/08 01:17:44;;;;;;;3.83;3.50;;;1.40;99.90;;;;;;5033022;28;20442;-66
2023/12/08 01:20:10;;;;;;;3.60;3.30;;;1.50;99.90;;;;;;5033009;28;20056;-65
2023/12/08 01:22:35;;;;;;;4.40;4.00;;;1.40;99.90;;;;;;5032869;28;20041;-65
2023/12/08 01:25:01;;;;;;;4.10;3.75;;;1.40;99.90;;;;;;5032690;28;20556;-65
2023/12/08 01:27:27;;;;;;;3.92;3.47;;;1.40;99.90;;;;;;5032954;28;20033;-65
2023/12/08 01:29:53;;;;;;;3.50;3.20;;;1.40;99.90;;;;;;5032917;28;20447;-65
2023/12/08 01:32:18;;;;;;;3.17;2.90;;;1.40;99.90;;;;;;5032846;28;20042;-65
2023/12/08 01:34:47;;;;;;;4.07;3.78;;;1.40;99.90;;;;;;5032675;28;20505;-65
2023/12/08 01:37:12;;;;;;;4.05;3.65;;;1.40;99.90;;;;;;5032931;28;20080;-65
2023/12/08 01:39:38;;;;;;;3.50;3.20;;;1.50;99.90;;;;;;5032848;28;20139;-65
2023/12/08 01:42:04;;;;;;;3.90;3.60;;;1.40;99.90;;;;;;5032729;28;20381;-65
2023/12/08 01:44:29;;;;;;;4.18;3.88;;;1.40;99.90;;;;;;5032840;28;20501;-65
2023/12/08 01:46:56;;;;;;;3.83;3.53;;;1.40;99.90;;;;;;5032563;28;20069;-64
2023/12/08 01:49:21;;;;;;;3.60;3.30;;;1.50;99.90;;;;;;5031523;28;20103;-64
2023/12/08 01:51:47;;;;;;;3.58;3.28;;;1.50;99.90;;;;;;5032661;28;20042;-64
2023/12/08 01:54:15;;;;;;;3.78;3.47;;;1.60;99.90;;;;;;5032442;28;20053;-65
2023/12/08 01:56:42;;;;;;;4.40;4.00;;;1.90;99.90;;;;;;5032619;28;20049;-64
2023/12/08 01:59:08;;;;;;;12.95;3.70;;;1.50;99.90;;;;;;5032674;28;20042;-64
2023/12/08 02:01:34;;;;;;;3.53;3.22;;;1.50;99.90;;;;;;5032480;28;20088;-63
2023/12/08 02:04:01;;;;;;;4.13;3.80;;;1.50;99.90;;;;;;5032530;28;20030;-63
2023/12/08 02:06:26;;;;;;;3.90;3.60;;;1.50;99.90;;;;;;5032274;28;20075;-64
2023/12/08 02:08:53;;;;;;;3.10;2.90;;;1.50;99.90;;;;;;5032535;28;20033;-64
2023/12/08 02:11:19;;;;;;;4.32;3.92;;;1.50;99.90;;;;;;5036183;28;20396;-64
2023/12/08 02:13:45;;;;;;;4.60;4.20;;;1.50;99.90;;;;;;5035896;28;20124;-64
2023/12/08 02:16:29;;;;;;;4.47;4.07;;;1.50;99.90;;;;;;5036169;28;20041;-63
2023/12/08 02:18:56;;;;;;;3.88;3.58;;;1.50;99.90;;;;;;5036097;28;20073;-64
2023/12/08 02:21:23;;;;;;;4.22;3.83;;;1.40;99.90;;;;;;5036356;28;20478;-64
2023/12/08 02:23:49;;;;;;;3.88;3.58;;;2.00;99.90;;;;;;5035834;28;20083;-64
2023/12/08 02:26:16;;;;;;;3.88;3.58;;;1.40;99.90;;;;;;5035736;28;20037;-64
2023/12/08 02:28:43;;;;;;;4.20;3.80;;;1.40;99.90;;;;;;5035951;28;20086;-64
2023/12/08 02:31:12;;;;;;;4.38;3.97;;;1.40;99.90;;;;;;5035921;28;20084;-64
2023/12/08 02:33:39;;;;;;;3.95;3.65;;;1.40;99.90;;;;;;5035884;28;20037;-64
2023/12/08 02:36:06;;;;;;;4.00;3.60;;;1.40;99.90;;;;;;5035522;28;20053;-64
2023/12/08 02:38:35;;;;;;;4.38;3.97;;;1.40;99.90;;;;;;5035553;28;20049;-64
2023/12/08 02:41:01;;;;;;;3.90;3.60;;;1.40;99.90;;;;;;5035371;28;20049;-65
2023/12/08 02:43:27;;;;;;;4.18;3.78;;;1.40;99.90;;;;;;5035746;28;20029;-65
2023/12/08 02:45:53;;;;;;;3.63;3.33;;;1.40;99.90;;;;;;5035751;28;20044;-65
2023/12/08 02:48:18;;;;;;;4.30;3.90;;;1.40;99.90;;;;;;5035493;28;20037;-65
2023/12/08 02:50:44;;;;;;;4.45;4.05;;;1.40;99.90;;;;;;5035217;28;20068;-65
2023/12/08 02:53:10;;;;;;;4.40;4.00;;;1.70;99.90;;;;;;5035484;28;20084;-64
2023/12/08 02:55:35;;;;;;;4.53;4.13;;;1.40;99.90;;;;;;5035351;28;20034;-64
2023/12/08 02:58:01;;;;;;;4.32;3.97;;;1.40;99.90;;;;;;5034152;28;20068;-65
2023/12/08 03:00:27;;;;;;;3.90;3.60;;;1.40;99.90;;;;;;5035283;28;20045;-65
2023/12/08 03:02:52;;;;;;;4.53;4.13;;;1.40;99.90;;;;;;5035278;28;20175;-65
2023/12/08 03:05:18;;;;;;;3.60;3.30;;;1.40;99.90;;;;;;5035223;28;20089;-64
2023/12/08 03:07:44;;;;;;;3.70;3.40;;;1.40;99.90;;;;;;5035149;28;20378;-65
2023/12/08 03:10:09;;;;;;;3.65;3.35;;;1.40;99.90;;;;;;5035183;28;20121;-65
2023/12/08 03:12:35;;;;;;;4.13;3.72;;;1.40;99.90;;;;;;5035059;28;20041;-64
2023/12/08 03:15:01;;;;;;;4.60;4.20;;;1.40;99.90;;;;;;5035054;28;20436;-64
2023/12/08 03:17:27;;;;;;;4.38;3.97;;;1.80;99.90;;;;;;5035084;28;20037;-65
2023/12/08 03:19:52;;;;;;;4.00;3.65;;;1.40;99.90;;;;;;5034965;28;20084;-65
2023/12/08 03:22:18;;;;;;;3.83;3.53;;;1.40;99.90;;;;;;5033872;28;20049;-65
2023/12/08 03:24:43;;;;;;;4.18;3.78;;;1.40;99.90;;;;;;5034934;28;20675;-65
2023/12/08 03:27:09;;;;;;;3.88;3.58;;;1.40;99.90;;;;;;5034718;28;20375;-65
2023/12/08 03:29:39;;;;;;;3.83;3.53;;;1.40;99.90;;;;;;5034748;28;20104;-65
2023/12/08 03:32:06;;;;;;;4.00;3.55;;;1.50;99.90;;;;;;5034807;28;20041;-65
2023/12/08 03:34:31;;;;;;;3.88;3.53;;;1.40;99.90;;;;;;5034716;28;20436;-65
2023/12/08 03:36:57;;;;;;;4.35;3.97;;;1.30;99.90;;;;;;5034216;28;20059;-65
2023/12/08 03:39:23;;;;;;;4.18;3.88;;;1.40;99.90;;;;;;5034288;28;20128;-65
2023/12/08 03:41:48;;;;;;;3.70;3.40;;;1.40;99.90;;;;;;5034458;28;20041;-65
2023/12/08 03:44:14;;;;;;;4.95;4.03;;;1.40;99.90;;;;;;5034536;28;20451;-65
2023/12/08 03:46:43;;;;;;;4.07;3.67;;;1.90;99.90;;;;;;5034462;28;20106;-65
2023/12/08 03:49:09;;;;;;;3.58;3.28;;;1.40;99.90;;;;;;5034464;28;20037;-65
2023/12/08 03:51:34;;;;;;;3.65;3.30;;;1.40;99.90;;;;;;5033968;28;20540;-65
2023/12/08 03:54:00;;;;;;;4.25;3.85;;;1.50;99.90;;;;;;5034313;28;20044;-65
2023/12/08 03:56:26;;;;;;;4.05;3.75;;;1.40;99.90;;;;;;5034360;28;20088;-65
2023/12/08 03:58:51;;;;;;;3.83;3.45;;;2.10;99.90;;;;;;5034184;28;20513;-65
2023/12/08 04:01:20;;;;;;;4.47;4.07;;;1.40;99.90;;;;;;5034069;28;20037;-65
2023/12/08 04:03:47;;;;;;;4.10;3.70;;;1.30;99.90;;;;;;5032879;28;20116;-65
2023/12/08 04:06:12;;;;;;;4.28;3.88;;;1.30;99.90;;;;;;5033668;28;20034;-65
2023/12/08 04:08:38;;;;;;;3.70;3.40;;;1.30;99.90;;;;;;5033980;28;20044;-65
2023/12/08 04:11:04;;;;;;;3.80;3.50;;;1.20;99.90;;;;;;5033952;28;20041;-65
2023/12/08 04:13:30;;;;;;;4.20;3.80;;;1.20;99.90;;;;;;5033982;28;20037;-65
2023/12/08 04:15:55;;;;;;;4.20;3.80;;;1.20;99.90;;;;;;5033615;28;20076;-65
2023/12/08 04:18:21;;;;;;;3.85;3.55;;;1.10;99.90;;;;;;5033899;28;20126;-65
2023/12/08 04:20:47;;;;;;;4.65;4.25;;;1.10;99.90;;;;;;5033719;28;20166;-65
2023/12/08 04:23:12;;;;;;;4.05;3.72;;;1.00;99.90;;;;;;5033802;28;20033;-65
2023/12/08 04:25:38;;;;;;;4.32;3.92;;;1.00;99.90;;;;;;5033748;28;20060;-66
2023/12/08 04:28:04;;;;;;;3.88;3.58;;;1.00;99.90;;;;;;5033836;28;20044;-65
2023/12/08 04:30:30;;;;;;;4.03;3.67;;;1.00;99.90;;;;;;5033695;28;20034;-65
2023/12/08 04:32:56;;;;;;;4.03;3.72;;;0.90;99.90;;;;;;5033543;28;20108;-65
2023/12/08 04:35:23;;;;;;;4.07;3.78;;;0.90;99.90;;;;;;5032142;28;20052;-65
2023/12/08 04:37:50;;;;;;;3.97;3.67;;;0.90;99.90;;;;;;5033219;28;20037;-65
2023/12/08 04:40:16;;;;;;;3.85;3.55;;;0.90;99.90;;;;;;5033512;28;20041;-65
2023/12/08 04:42:42;;;;;;;4.10;3.80;;;0.90;99.90;;;;;;5033061;28;20037;-65
2023/12/08 04:45:09;;;;;;;3.53;3.22;;;0.80;99.90;;;;;;5033396;28;20048;-65
2023/12/08 04:47:36;;;;;;;4.43;4.03;;;0.90;99.90;;;;;;5033311;28;20033;-65
2023/12/08 04:50:02;;;;;;;4.35;3.95;;;0.90;99.90;;;;;;5032994;28;20159;-65
2023/12/08 04:52:28;;;;;;;4.32;3.95;;;0.90;99.90;;;;;;5032957;28;20038;-65
2023/12/08 04:54:54;;;;;;;3.80;3.50;;;0.80;99.90;;;;;;5033336;28;20037;-65
2023/12/08 04:57:20;;;;;;;4.18;3.78;;;0.90;99.90;;;;;;5032969;28;20434;-65
2023/12/08 04:59:45;;;;;;;4.18;3.78;;;0.80;99.90;;;;;;5033198;28;20037;-64
2023/12/08 05:02:11;;;;;;;3.90;3.60;;;0.90;99.90;;;;;;5033055;28;20493;-64
2023/12/08 05:04:37;;;;;;;4.03;3.72;;;0.90;99.90;;;;;;5033176;28;20037;-64
2023/12/08 05:07:03;;;;;;;4.25;3.95;;;0.90;99.90;;;;;;5032878;28;20037;-64
2023/12/08 05:09:29;;;;;;;4.45;4.05;;;0.90;99.90;;;;;;5032812;28;20038;-64
2023/12/08 05:11:54;;;;;;;3.75;3.45;;;0.90;99.90;;;;;;5032788;28;20044;-64
2023/12/08 05:14:20;;;;;;;4.28;3.88;;;0.90;99.90;;;;;;5033006;28;20044;-64
2023/12/08 05:16:46;;;;;;;3.92;3.63;;;0.90;99.90;;;;;;5033055;28;20045;-63
2023/12/08 05:19:11;;;;;;;4.28;3.88;;;0.90;99.90;;;;;;5031768;28;20037;-64
2023/12/08 05:21:37;;;;;;;3.35;3.05;;;0.90;99.90;;;;;;5032643;28;20045;-64
2023/12/08 05:24:03;;;;;;;4.03;3.72;;;1.40;99.90;;;;;;5032648;28;20072;-64
2023/12/08 05:26:30;;;;;;;4.00;3.70;;;0.90;99.90;;;;;;5032533;28;20034;-64
2023/12/08 05:28:56;;;;;;;4.57;4.18;;;0.90;99.90;;;;;;5032913;28;20394;-64
2023/12/08 05:31:21;;;;;;;3.92;3.63;;;1.10;99.90;;;;;;5032580;28;20041;-64
2023/12/08 05:33:47;;;;;;;4.13;3.78;;;0.80;99.90;;;;;;5032546;28;20041;-63
2023/12/08 05:36:12;;;;;;;4.28;3.90;;;0.90;99.90;;;;;;5032528;28;20136;-64
2023/12/08 05:38:38;;;;;;;4.50;4.10;;;0.90;99.90;;;;;;5032631;28;20477;-64
2023/12/08 05:41:04;;;;;;;3.88;3.58;;;0.90;99.90;;;;;;5032741;28;20042;-64
2023/12/08 05:43:30;;;;;;;4.68;3.75;;;0.90;99.90;;;;;;5032378;28;20076;-65
2023/12/08 05:45:55;;;;;;;3.92;3.63;;;0.80;99.90;;;;;;5036440;28;20067;-65
2023/12/08 05:48:21;;;;;;;3.90;3.60;;;0.90;99.90;;;;;;5036737;28;20037;-65
2023/12/08 05:50:47;;;;;;;5.07;4.38;;;0.90;99.90;;;;;;5036649;28;20052;-65
2023/12/08 05:53:13;;;;;;;4.25;3.85;;;1.10;99.90;;;;;;5036648;28;20045;-65
2023/12/08 05:55:39;;;;;;;4.50;4.10;;;0.90;99.90;;;;;;5036603;28;20547;-65
2023/12/08 05:58:05;;;;;;;4.75;4.35;;;0.80;99.90;;;;;;5036512;28;20041;-65
2023/12/08 06:00:31;;;;;;;4.03;3.63;;;0.80;99.90;;;;;;5036488;28;20084;-65
2023/12/08 06:02:57;;;;;;;4.70;4.30;;;0.80;99.90;;;;;;5036522;28;20034;-65
2023/12/08 06:05:23;;;;;;;4.53;4.13;;;0.80;99.90;;;;;;5036388;28;20049;-65
2023/12/08 06:07:48;;;;;;;4.60;4.20;;;0.80;99.90;;;;;;5036412;28;20040;-65
2023/12/08 06:10:15;;;;;;;4.28;3.97;;;0.80;99.90;;;;;;5036359;28;20112;-65
2023/12/08 06:12:40;;;;;;;4.32;3.92;;;0.80;99.90;;;;;;5035907;28;20087;-65
2023/12/08 06:15:07;;;;;;;4.72;4.32;;;0.80;99.90;;;;;;5036226;28;20045;-66
2023/12/08 06:17:32;;;;;;;4.47;4.03;;;0.80;99.90;;;;;;5035949;28;20079;-67
2023/12/08 06:19:58;;;;;;;5.78;4.05;;;0.80;99.90;;;;;;5034672;28;20077;-69
2023/12/08 06:22:24;;;;;;;4.32;3.92;;;1.20;99.90;;;;;;5034586;28;20485;-65
2023/12/08 06:24:50;;;;;;;4.70;4.30;;;0.80;99.90;;;;;;5036060;28;20037;-65
2023/12/08 06:27:16;;;;;;;4.22;3.92;;;0.80;99.90;;;;;;5034663;28;20036;-65
2023/12/08 06:29:41;;;;;;;4.25;3.88;;;0.80;99.90;;;;;;5035955;28;20462;-64
2023/12/08 06:32:07;;;;;;;3.58;3.28;;;0.80;99.90;;;;;;5035931;28;20128;-67
2023/12/08 06:34:33;;;;;;;4.43;4.03;;;0.80;99.90;;;;;;5035868;28;20443;-66
2023/12/08 06:36:58;;;;;;;4.82;4.43;;;0.90;99.90;;;;;;5035445;28;20054;-64
2023/12/08 06:39:24;;;;;;;4.13;3.83;;;0.80;99.90;;;;;;5034680;28;20041;-65
2023/12/08 06:41:50;;;;;;;4.30;3.90;;;0.80;99.90;;;;;;5035386;28;20473;-66
2023/12/08 06:44:16;;;;;;;4.25;3.95;;;0.80;99.90;;;;;;5035683;28;20052;-64
2023/12/08 06:46:44;;;;;;;4.65;4.28;;;0.80;99.90;;;;;;5034152;28;20072;-68
2023/12/08 06:49:10;;;;;;;4.35;4.05;;;0.80;99.90;;;;;;5034200;28;20053;-64
2023/12/08 06:51:36;;;;;;;4.93;4.50;;;0.80;99.90;;;;;;5035552;28;20052;-65
2023/12/08 06:54:03;;;;;;;4.10;3.78;;;0.80;99.90;;;;;;5035472;28;20473;-64
2023/12/08 06:56:29;;;;;;;4.60;4.20;;;0.80;99.90;;;;;;5033978;28;20128;-64
2023/12/08 06:58:54;;;;;;;4.55;4.20;;;0.80;99.90;;;;;;5035138;28;20091;-69
2023/12/08 07:01:20;;;;;;;4.22;3.85;;;0.80;99.90;;;;;;5035320;28;20038;-68
2023/12/08 07:03:47;;;;;;;4.50;4.10;;;0.80;99.90;;;;;;5033888;28;20049;-64
2023/12/08 07:06:13;;;;;;;4.70;4.30;;;0.80;99.90;;;;;;5033778;28;20128;-64
2023/12/08 07:08:38;;;;;;;4.75;4.35;;;0.80;99.90;;;;;;5033761;28;20537;-63
2023/12/08 07:11:04;;;;;;;4.55;4.15;;;1.70;99.90;;;;;;5035189;28;20045;-64
2023/12/08 07:13:30;;;;;;;4.53;4.13;;;0.80;99.90;;;;;;5035200;28;20071;-69
2023/12/08 07:15:55;;;;;;;4.50;4.10;;;0.80;99.90;;;;;;5035093;28;20037;-64
2023/12/08 07:18:21;;;;;;;4.90;4.50;;;0.80;99.90;;;;;;5034995;28;20095;-70
2023/12/08 07:20:47;;;;;;;4.20;3.90;;;0.80;99.90;;;;;;5033422;28;20044;-64
2023/12/08 07:23:12;;;;;;;5.30;4.82;;;0.80;99.90;;;;;;5034506;28;20084;-64
2023/12/08 07:25:38;;;;;;;4.75;4.22;;;0.80;99.90;;;;;;5033418;28;20049;-64
2023/12/08 07:28:04;;;;;;;5.20;4.70;;;0.80;99.90;;;;;;5034579;28;20041;-64
2023/12/08 07:30:30;;;;;;;4.78;4.38;;;0.80;99.90;;;;;;5034912;28;20498;-64
2023/12/08 07:32:56;;;;;;;4.70;4.35;;;0.80;99.90;;;;;;5034837;28;20060;-64
2023/12/08 07:35:21;;;;;;;4.35;3.97;;;0.80;99.90;;;;;;5034446;28;20057;-64
2023/12/08 07:37:47;;;;;;;4.55;4.15;;;0.80;99.90;;;;;;5034642;28;20037;-64
2023/12/08 07:40:13;;;;;;;4.28;3.90;;;0.80;99.90;;;;;;5034553;28;20501;-64
2023/12/08 07:42:39;;;;;;;4.68;4.25;;;0.80;99.90;;;;;;5034543;28;20045;-64
2023/12/08 07:45:05;;;;;;;5.05;4.55;;;0.80;99.90;;;;;;5034222;28;20500;-64
2023/12/08 07:47:32;;;;;;;4.82;4.43;;;0.90;99.90;;;;;;5034622;28;20079;-64
2023/12/08 07:49:58;;;;;;;5.00;4.60;;;0.90;99.90;;;;;;5033397;28;20087;-64
2023/12/08 07:52:24;;;;;;;5.15;4.65;;;0.90;99.90;;;;;;5033344;28;20041;-65
2023/12/08 07:54:50;;;;;;;4.68;4.28;;;0.90;99.90;;;;;;5033329;28;20056;-65
2023/12/08 07:57:16;;;;;;;4.57;4.18;;;0.90;99.90;;;;;;5033483;28;20049;-69
2023/12/08 07:59:41;;;;;;;4.30;4.00;;;0.90;99.90;;;;;;5032080;28;20539;-65
2023/12/08 08:02:07;;;;;;;4.47;4.07;;;1.00;99.90;;;;;;5032982;28;20077;-65
2023/12/08 08:04:32;;;;;;;4.95;4.55;;;0.90;99.90;;;;;;5033262;28;20029;-65
2023/12/08 08:06:58;;;;;;;5.50;5.00;;;0.90;99.90;;;;;;5032858;28;20524;-65
2023/12/08 08:09:24;;;;;;;4.82;4.43;;;0.90;99.90;;;;;;5032997;28;20481;-65
2023/12/08 08:11:49;;;;;;;5.07;4.68;;;0.90;99.90;;;;;;5032871;28;20037;-65
2023/12/08 08:14:15;;;;;;;4.80;4.40;;;1.00;99.90;;;;;;5032794;28;20053;-65
2023/12/08 08:16:41;;;;;;;5.07;4.68;;;0.90;99.90;;;;;;5033055;28;20053;-65
2023/12/08 08:19:07;;;;;;;5.00;4.60;;;0.90;99.90;;;;;;5033142;28;20098;-65
2023/12/08 08:21:32;;;;;;;4.47;4.07;;;1.00;99.90;;;;;;5032912;28;20100;-65
2023/12/08 08:23:58;;;;;;;5.20;4.75;;;1.00;99.90;;;;;;5031708;28;20045;-65
2023/12/08 08:26:27;;;;;;;4.57;4.18;;;1.00;99.90;;;;;;5032914;28;20397;-66
2023/12/08 08:28:52;;;;;;;4.63;4.22;;;1.00;99.90;;;;;;5032972;28;20044;-65
2023/12/08 08:31:18;;;;;;;4.18;3.85;;;1.00;99.90;;;;;;5032827;28;20489;-64
2023/12/08 08:33:45;;;;;;;4.88;4.47;;;1.20;99.90;;;;;;5032725;28;20037;-65
2023/12/08 08:36:11;;;;;;;5.20;4.70;;;1.00;99.90;;;;;;5032213;28;20069;-65
2023/12/08 08:38:37;;;;;;;4.65;4.25;;;1.00;99.90;;;;;;5032831;28;20421;-64
2023/12/08 08:41:03;;;;;;;4.80;4.40;;;1.00;99.90;;;;;;5032533;28;20040;-64
2023/12/08 08:43:29;;;;;;;4.80;4.40;;;1.40;99.90;;;;;;5032570;28;20037;-65
2023/12/08 08:45:55;;;;;;;3.78;3.47;;;1.00;99.90;;;;;;5032607;28;20041;-65
2023/12/08 08:48:21;;;;;;;4.85;4.35;;;1.00;99.90;;;;;;5032185;28;20124;-63
2023/12/08 08:50:48;;;;;;;5.18;4.78;;;1.10;99.90;;;;;;5032444;28;20084;-63
2023/12/08 08:53:17;;;;;;;4.50;4.10;;;1.00;99.90;;;;;;5032088;28;20091;-63
2023/12/08 08:55:43;;;;;;;4.63;4.22;;;1.10;99.90;;;;;;5032373;28;20069;-63
2023/12/08 08:58:09;;;;;;;4.45;4.05;;;1.10;99.90;;;;;;5032049;28;20113;-64
2023/12/08 09:00:34;;;;;;;4.78;4.38;;;1.20;99.90;;;;;;5031862;28;20041;-64
2023/12/08 09:03:01;;;;;;;4.40;4.07;;;1.60;99.90;;;;;;5032050;28;20041;-63
2023/12/08 09:05:27;;;;;;;5.05;4.55;;;1.00;99.90;;;;;;5032327;28;20478;-64
2023/12/08 09:07:54;;;;;;;4.88;4.47;;;1.10;99.90;;;;;;5032357;28;20034;-63
2023/12/08 09:10:20;;;;;;;4.78;4.38;;;1.00;99.90;;;;;;5032273;28;20600;-63
2023/12/08 09:12:46;;;;;;;5.30;4.80;;;1.10;99.90;;;;;;5032148;28;20056;-63
2023/12/08 09:15:13;;;;;;;4.40;4.00;;;1.00;99.90;;;;;;5032079;28;20045;-64
2023/12/08 09:17:40;;;;;;;4.70;4.30;;;1.10;99.90;;;;;;5032105;28;20045;-63
2023/12/08 09:20:13;;;;;;;4.70;4.30;;;1.10;99.90;;;;;;5031444;28;20049;-64
2023/12/08 09:22:39;;;;;;;4.85;4.45;;;1.10;99.90;;;;;;5031742;28;20046;-67
2023/12/08 09:25:06;;;;;;;4.72;4.32;;;1.40;99.90;;;;;;5031718;28;20041;-64
2023/12/08 09:27:31;;;;;;;4.80;4.40;;;1.10;99.90;;;;;;5032068;28;20120;-63
2023/12/08 09:29:57;;;;;;;4.43;4.03;;;1.10;99.90;;;;;;5031971;28;20168;-64
2023/12/08 09:32:23;;;;;;;4.72;4.32;;;1.30;99.90;;;;;;5031693;28;20138;-63
2023/12/08 09:34:48;;;;;;;4.75;4.35;;;1.20;99.90;;;;;;5031840;28;20041;-64
2023/12/08 09:37:14;;;;;;;4.70;4.30;;;1.20;99.90;;;;;;5031945;28;20409;-64
2023/12/08 09:39:39;;;;;;;5.43;4.93;;;1.20;99.90;;;;;;5031969;28;20469;-64
2023/12/08 09:42:08;;;;;;;4.95;4.55;;;1.20;99.90;;;;;;5031822;28;20545;-64
2023/12/08 09:44:34;;;;;;;4.40;4.00;;;1.20;99.90;;;;;;5031968;28;20069;-64
2023/12/08 09:47:04;;;;;;;4.88;4.47;;;1.20;99.90;;;;;;5031875;28;20042;-64
2023/12/08 09:49:41;;;;;;;5.00;4.60;;;1.20;99.90;;;;;;5031652;28;20034;-64
2023/12/08 09:52:08;;;;;;;4.50;4.10;;;1.20;99.90;;;;;;5031921;28;20448;-63
2023/12/08 09:54:34;;;;;;;4.30;3.97;;;1.30;99.90;;;;;;5031502;28;20041;-63
2023/12/08 09:57:01;;;;;;;4.30;3.90;;;1.20;99.90;;;;;;5031496;28;20040;-63
2023/12/08 09:59:29;;;;;;;4.60;4.30;;;1.20;99.90;;;;;;5031813;28;20080;-63
2023/12/08 10:01:55;;;;;;;4.30;4.00;;;1.20;99.90;;;;;;5032010;28;20033;-63
2023/12/08 10:04:23;;;;;;;4.70;4.30;;;1.30;99.90;;;;;;5031749;28;20037;-63
2023/12/08 10:06:50;;;;;;;4.85;4.45;;;1.20;99.90;;;;;;5031733;28;20069;-63
2023/12/08 10:09:17;;;;;;;4.40;4.00;;;1.20;99.90;;;;;;5031719;28;20063;-64
2023/12/08 10:11:43;;;;;;;4.82;4.43;;;1.20;99.90;;;;;;5031346;28;20042;-63
2023/12/08 10:14:14;;;;;;;4.45;4.07;;;1.20;99.90;;;;;;5031642;28;20489;-71
2023/12/08 10:16:42;;;;;;;5.07;4.63;;;1.30;99.90;;;;;;5031678;28;20053;-63
2023/12/08 10:19:09;;;;;;;4.47;4.07;;;1.20;99.90;;;;;;5031713;28;20052;-63
2023/12/08 10:21:35;;;;;;;4.47;4.07;;;1.30;99.90;;;;;;5031269;28;20045;-63
2023/12/08 10:24:02;;;;;;;5.00;4.50;;;1.50;99.90;;;;;;5031272;28;20051;-64
2023/12/08 10:26:29;;;;;;;4.65;4.25;;;1.30;99.90;;;;;;5031527;28;20091;-64
2023/12/08 10:28:59;;;;;;;4.78;4.38;;;1.30;99.90;;;;;;5031194;28;20042;-64
2023/12/08 10:31:26;;;;;;;5.07;4.68;;;1.30;99.90;;;;;;5034034;28;20477;-64
2023/12/08 10:33:52;;;;;;;5.07;4.68;;;1.30;99.90;;;;;;5035030;28;20042;-64
2023/12/08 10:36:18;;;;;;;4.80;4.40;;;1.40;99.90;;;;;;5034681;28;20504;-64
2023/12/08 10:38:45;;;;;;;4.70;4.30;;;1.30;99.90;;;;;;5034596;28;20076;-64
2023/12/08 10:41:11;;;;;;;4.43;4.05;;;1.30;99.90;;;;;;5034433;28;20052;-64
2023/12/08 10:43:38;;;;;;;4.72;4.32;;;1.40;99.90;;;;;;5034859;28;20049;-64
2023/12/08 10:46:03;;;;;;;4.43;4.03;;;1.40;99.90;;;;;;5034486;28;20030;-63
2023/12/08 10:48:29;;;;;;;4.53;4.15;;;1.30;99.90;;;;;;5034499;28;20044;-64
2023/12/08 10:50:56;;;;;;;4.72;4.32;;;1.50;99.90;;;;;;5034739;28;20497;-63
2023/12/08 10:53:22;;;;;;;4.70;4.30;;;1.40;99.90;;;;;;5034622;28;20041;-64
2023/12/08 10:56:09;;;;;;;4.15;3.85;;;1.50;99.90;;;;;;5034668;28;20033;-64
2023/12/08 10:58:36;;;;;;;4.68;4.28;;;1.40;99.90;;;;;;5034760;28;20033;-64
2023/12/08 11:01:12;;;;;;;4.63;4.22;;;1.40;99.90;;;;;;5032922;28;20076;-63
2023/12/08 11:03:39;;;;;;;4.78;4.38;;;1.40;99.90;;;;;;5034246;28;20504;-63
2023/12/08 11:06:10;;;;;;;5.18;4.78;;;1.40;99.90;;;;;;5034699;28;20038;-63
2023/12/08 11:08:40;;;;;;;5.23;4.83;;;1.40;99.90;;;;;;5032831;28;20080;-63
2023/12/08 11:11:08;;;;;;;5.28;4.88;;;1.40;99.90;;;;;;5034375;28;20276;-62
2023/12/08 11:13:38;;;;;;;4.93;4.53;;;1.40;99.90;;;;;;5033990;28;20088;-63
2023/12/08 11:16:12;;;;;;;5.20;4.80;;;1.40;99.90;;;;;;5034241;28;20045;-64
2023/12/08 11:18:39;;;;;;;5.20;4.70;;;1.50;99.90;;;;;;5032781;28;20049;-63
2023/12/08 11:21:07;;;;;;;5.00;4.57;;;2.00;99.90;;;;;;5034112;28;20092;-63
2023/12/08 11:23:35;;;;;;;5.18;4.72;;;1.50;99.90;;;;;;5034018;28;20117;-62
2023/12/08 11:26:19;;;;;;;5.47;4.95;;;1.50;99.90;;;;;;5032841;28;20044;-64
2023/12/08 11:28:56;;;;;;;5.97;5.47;;;1.50;99.90;;;;;;5033860;28;20115;-63
2023/12/08 11:31:29;;;;;;;5.75;4.70;;;1.50;99.90;;;;;;5033748;28;20151;-63
2023/12/08 11:34:06;;;;;;;5.57;5.07;;;1.60;99.90;;;;;;5032710;28;20124;-63
2023/12/08 11:36:33;;;;;;;6.00;4.57;;;1.60;99.90;;;;;;5032270;28;20057;-63
2023/12/08 11:38:59;;;;;;;5.28;4.78;;;1.50;99.90;;;;;;5033543;28;20041;-63
2023/12/08 11:41:27;;;;;;;5.35;4.85;;;1.50;99.90;;;;;;5033156;28;20175;-63
2023/12/08 11:43:53;;;;;;;5.25;4.75;;;1.50;99.90;;;;;;5033526;28;20432;-63
2023/12/08 11:46:19;;;;;;;5.25;4.43;;;1.50;99.90;;;;;;5033385;28;20056;-64
2023/12/08 11:48:51;;;;;;;5.40;4.90;;;1.50;99.90;;;;;;5033638;28;20041;-64
2023/12/08 11:51:17;;;;;;;5.85;5.35;;;1.60;99.90;;;;;;5033670;28;20444;-64
2023/12/08 11:53:54;;;;;;;5.75;5.25;;;1.50;99.90;;;;;;5032292;28;20045;-64
2023/12/08 11:56:41;;;;;;;5.68;5.18;;;1.50;99.90;;;;;;5033823;28;20044;-64
2023/12/08 11:59:07;;;;;;;7.47;5.72;;;1.60;99.90;;;;;;5033498;28;20048;-64
2023/12/08 12:01:36;;;;;;;6.13;4.97;;;1.50;99.90;;;;;;5033302;28;20477;-64
2023/12/08 12:04:02;;;;;;;5.93;5.32;;;1.60;99.90;;;;;;5031782;28;20413;-64
2023/12/08 12:06:30;;;;;;;5.90;5.40;;;1.60;99.90;;;;;;5033187;28;20048;-63
2023/12/08 12:08:59;;;;;;;5.40;4.90;;;1.50;99.90;;;;;;5031700;28;20067;-64
2023/12/08 12:11:36;;;;;;;5.75;5.25;;;1.50;99.90;;;;;;5031945;28;20045;-64
2023/12/08 12:14:05;;;;;;;5.55;5.05;;;1.60;99.90;;;;;;5033132;28;20107;-64
2023/12/08 12:16:30;;;;;;;5.75;5.25;;;1.60;99.90;;;;;;5032755;28;20048;-64
2023/12/08 12:18:56;;;;;;;5.95;5.40;;;1.60;99.90;;;;;;5032815;28;20038;-64
2023/12/08 12:21:22;;;;;;;6.53;5.88;;;1.70;99.90;;;;;;5033005;28;20045;-64
2023/12/08 12:23:47;;;;;;;6.93;5.53;;;1.60;99.90;;;;;;5033023;28;20517;-64
2023/12/08 12:26:14;;;;;;;5.68;5.10;;;1.60;99.90;;;;;;5032685;28;20088;-64
2023/12/08 12:28:40;;;;;;;5.85;5.35;;;2.30;99.90;;;;;;5033002;28;20064;-64
2023/12/08 12:31:06;;;;;;;6.10;5.50;;;1.60;99.90;;;;;;5032811;28;20120;-64
2023/12/08 12:33:32;;;;;;;5.30;4.85;;;1.60;99.90;;;;;;5032711;28;20474;-64
2023/12/08 12:35:57;;;;;;;7.65;5.55;;;1.60;99.90;;;;;;5032461;28;20137;-64
2023/12/08 12:38:25;;;;;;;6.40;5.80;;;1.60;99.90;;;;;;5032708;28;20045;-64
2023/12/08 12:40:55;;;;;;;6.40;5.75;;;1.60;99.90;;;;;;5032644;28;20382;-64
2023/12/08 12:43:21;;;;;;;6.65;6.07;;;1.60;99.90;;;;;;5031059;28;20470;-64
2023/12/08 12:45:49;;;;;;;7.35;6.43;;;1.60;99.90;;;;;;5031232;28;20123;-64
2023/12/08 12:48:15;;;;;;;6.93;6.05;;;1.70;99.90;;;;;;5032550;28;20049;-64
2023/12/08 12:50:47;;;;;;;6.25;5.72;;;1.70;99.90;;;;;;5032511;28;20037;-64
2023/12/08 12:53:14;;;;;;;6.13;5.53;;;1.70;99.90;;;;;;5030481;28;20049;-64
2023/12/08 12:55:40;;;;;;;8.43;6.00;;;1.70;99.90;;;;;;5031809;28;20077;-64